Terminal Aerodrome Forecast
Issued by NWS

Home | Current Version | Previous Version | Text Only | Print | Product List | Glossary On
Versions: 1 2 3 4 5 6 7 8 9 10 11 12 13 14 15 16 17 18 19 20 21 22 23 24 25 26 27
000
FTUS43 KMQT 300806 AAB
TAFSAW
TAF AMD
KSAW 300806Z 3008/3106 33014G19KT P6SM -SHSN OVC025
      TEMPO 3008/3010 3SM -SHSN BKN015
     FM301100 33009KT P6SM SCT030
     FM301800 29007KT P6SM SCT080
     FM302100 22003KT P6SM BKN050=

USA.gov is the U.S. government's official web portal to all federal, state and local government web resources and services.